Time;durP1;ratioP1;P1;durP2;ratioP2;P2;SDS_P1;SDS_P2;PMS_P1;PMS_P2;Temp;Humidity;BMP_temperature;BMP_pressure;BME280_temperature;BME280_humidity;BME280_pressure;Samples;Min_cycle;Max_cycle;Signal;HPM_P1;HPM_P2
2022/04/30 00:00:17;;;;;;;13.50;6.85;;;10.20;93.20;;;8.61;78.25;101693.41;4933089;29;20049;-85
2022/04/30 00:02:44;;;;;;;13.80;6.47;;;10.20;93.10;;;8.70;78.50;101690.84;4933319;29;20044;-85
2022/04/30 00:05:14;;;;;;;15.02;6.40;;;10.20;93.40;;;8.80;78.77;101687.13;4931161;29;20099;-84
2022/04/30 00:07:41;;;;;;;12.25;6.30;;;10.20;93.60;;;8.80;79.24;101686.28;4932228;29;20043;-85
2022/04/30 00:10:10;;;;;;;12.35;6.60;;;10.20;93.80;;;8.85;78.85;101683.97;4925064;29;20091;-85
2022/04/30 00:12:37;;;;;;;14.68;6.50;;;10.30;93.80;;;8.75;79.03;101683.13;4932849;29;20044;-85
2022/04/30 00:15:07;;;;;;;9.50;5.93;;;10.30;93.70;;;8.68;78.69;101692.84;4932793;29;20075;-85
2022/04/30 00:17:35;;;;;;;14.68;6.43;;;10.20;93.40;;;8.44;79.67;101685.13;4933252;29;20130;-85
2022/04/30 00:20:03;;;;;;;14.85;6.40;;;10.10;93.40;;;8.49;79.75;101689.13;4933021;29;20079;-85
2022/04/30 00:22:30;;;;;;;13.50;6.75;;;10.10;93.80;;;8.53;79.23;101685.13;4931751;29;20050;-85
2022/04/30 00:24:57;;;;;;;10.10;5.80;;;10.10;93.60;;;8.62;78.80;101688.84;4932024;29;20143;-85
2022/04/30 00:27:25;;;;;;;17.27;6.72;;;9.90;94.00;;;8.61;78.26;101693.41;4929501;29;20074;-85
2022/04/30 00:29:53;;;;;;;14.88;6.22;;;9.90;94.10;;;8.51;78.79;101681.72;4931987;29;20087;-85
2022/04/30 00:32:22;;;;;;;15.48;6.35;;;9.80;94.50;;;8.61;79.06;101674.41;4922497;29;20075;-84
2022/04/30 00:34:49;;;;;;;10.85;5.70;;;9.80;95.00;;;8.63;78.51;101681.56;4932847;29;20048;-85
2022/04/30 00:37:16;;;;;;;12.52;6.40;;;9.80;94.90;;;8.45;79.22;101674.13;4947244;29;20489;-85
2022/04/30 00:39:44;;;;;;;12.60;5.82;;;9.80;94.40;;;8.42;79.64;101669.00;4931272;29;20066;-85
2022/04/30 00:42:12;;;;;;;14.40;6.13;;;9.70;94.60;;;8.36;79.29;101672.25;4932229;29;20051;-85
2022/04/30 00:44:39;;;;;;;10.25;5.85;;;9.70;94.60;;;8.42;79.50;101666.28;4932753;29;20379;-85
2022/04/30 00:47:07;;;;;;;10.73;6.13;;;9.70;95.30;;;8.44;79.36;101675.13;4932428;29;20475;-85
2022/04/30 00:49:35;;;;;;;13.32;6.00;;;9.70;95.00;;;8.39;79.89;101667.38;4931190;29;20040;-85
2022/04/30 00:52:04;;;;;;;9.95;6.28;;;9.70;95.00;;;8.44;79.46;101669.72;4932272;29;20071;-85
2022/04/30 00:54:37;;;;;;;10.10;5.82;;;9.70;95.20;;;8.40;79.27;101670.97;4923686;29;20131;-85
2022/04/30 00:57:08;;;;;;;13.25;5.90;;;9.60;95.50;;;8.37;79.65;101668.53;4924655;29;20048;-85
2022/04/30 00:59:41;;;;;;;12.25;5.97;;;9.60;95.30;;;8.42;79.61;101671.72;4931786;29;20075;-85
2022/04/30 01:02:10;;;;;;;9.43;5.85;;;9.60;95.70;;;8.38;79.74;101670.25;4932429;29;20054;-85
2022/04/30 01:04:54;;;;;;;10.07;5.30;;;9.60;95.80;;;8.39;79.86;101669.25;4930017;29;20197;-85
2022/04/30 01:07:21;;;;;;;16.38;5.53;;;9.60;96.00;;;8.31;80.04;101672.66;4922330;29;20048;-85
2022/04/30 01:09:50;;;;;;;12.88;6.07;;;9.60;95.50;;;8.27;79.85;101667.66;4932029;29;20036;-85
2022/04/30 01:12:18;;;;;;;10.80;5.95;;;9.60;95.40;;;8.31;80.61;101674.53;4932574;29;20048;-85
2022/04/30 01:14:47;;;;;;;12.40;5.68;;;9.60;96.00;;;8.32;80.63;101676.22;4929635;29;20078;-85
2022/04/30 01:17:14;;;;;;;11.18;5.78;;;9.60;95.90;;;8.33;80.25;101670.66;4916765;29;20100;-85
2022/04/30 01:19:43;;;;;;;12.93;6.43;;;9.50;95.90;;;8.29;79.75;101660.25;4915336;29;20044;-85
2022/04/30 01:22:25;;;;;;;15.80;6.00;;;9.40;95.90;;;8.27;80.37;101659.53;4923945;29;20049;-85
2022/04/30 01:24:56;;;;;;;;;;;9.50;96.20;;;8.13;80.35;101661.66;4929932;29;20487;-85
2022/04/30 01:27:25;;;;;;;10.95;5.32;;;9.50;95.80;;;8.06;81.15;101656.94;4920774;29;20526;-85
2022/04/30 01:29:53;;;;;;;14.55;6.68;;;9.50;96.00;;;8.09;80.73;101652.09;4935464;29;20044;-85
2022/04/30 01:38:10;;;;;;;11.52;5.40;;;9.30;96.40;;;8.06;81.74;101652.38;4900538;29;20146;-85
2022/04/30 01:40:39;;;;;;;10.38;5.88;;;9.30;96.90;;;8.14;81.02;101647.09;4928953;29;20040;-85
2022/04/30 01:43:08;;;;;;;15.48;5.78;;;9.40;96.80;;;8.15;80.77;101648.81;4931617;29;20123;-85
2022/04/30 01:45:36;;;;;;;9.95;5.97;;;9.40;96.90;;;8.01;81.89;101638.38;4931931;29;20032;-85
2022/04/30 01:48:05;;;;;;;12.93;5.40;;;9.30;96.50;;;7.97;81.15;101640.50;4930057;29;20213;-85
2022/04/30 01:50:34;;;;;;;17.27;5.80;;;9.30;96.50;;;8.01;80.87;101644.66;4931821;29;20036;-85
2022/04/30 01:53:02;;;;;;;14.00;5.30;;;9.30;96.40;;;8.01;81.12;101641.06;4926301;29;20139;-85
2022/04/30 01:55:29;;;;;;;12.63;5.20;;;9.30;96.40;;;7.96;81.40;101640.66;4921700;29;20118;-85
2022/04/30 01:58:04;;;;;;;12.50;5.45;;;9.30;96.50;;;8.00;81.81;101633.97;4935240;29;20072;-85
2022/04/30 02:00:32;;;;;;;14.95;5.10;;;9.30;97.00;;;7.91;81.10;101640.22;4926734;29;20050;-85
2022/04/30 02:03:07;;;;;;;11.23;5.18;;;9.30;96.30;;;7.81;82.02;101632.91;4938101;28;20059;-85
2022/04/30 02:05:37;;;;;;;11.75;5.63;;;9.30;96.40;;;7.85;82.16;101636.22;4934566;29;20039;-85
2022/04/30 02:08:09;;;;;;;10.98;4.72;;;9.30;96.40;;;7.70;82.46;101635.72;4934676;29;20051;-85
2022/04/30 02:10:38;;;;;;;12.50;5.47;;;9.20;96.30;;;7.69;82.21;101638.56;4934190;29;20106;-85
2022/04/30 02:13:09;;;;;;;11.05;5.38;;;9.20;96.70;;;7.80;82.72;101633.91;4934900;29;20042;-85
2022/04/30 02:15:40;;;;;;;10.43;5.13;;;9.10;97.30;;;7.64;83.21;101637.13;4935185;29;20047;-85
2022/04/30 02:18:13;;;;;;;11.32;4.75;;;9.10;97.20;;;7.64;83.26;101630.88;4933397;29;20055;-85
2022/04/30 02:20:42;;;;;;;13.18;5.15;;;9.10;97.40;;;7.52;83.33;101630.13;4934183;29;20036;-85
2022/04/30 02:23:11;;;;;;;13.25;4.88;;;9.00;97.70;;;7.37;84.37;101626.94;4934708;29;20549;-85
2022/04/30 02:25:39;;;;;;;11.02;5.15;;;8.90;97.80;;;7.53;83.73;101620.16;4935178;29;20075;-85
2022/04/30 02:28:09;;;;;;;8.65;4.57;;;8.80;98.50;;;7.58;83.34;101617.88;4933153;29;20067;-85
2022/04/30 02:30:38;;;;;;;11.00;4.68;;;8.80;98.80;;;7.59;83.73;101614.16;4916144;29;20103;-85
2022/04/30 02:33:08;;;;;;;11.18;4.97;;;8.80;98.80;;;7.43;84.55;101620.97;4920327;29;20048;-85
2022/04/30 02:35:38;;;;;;;11.80;5.43;;;8.80;98.60;;;7.41;84.51;101617.53;4934612;29;20042;-85
2022/04/30 02:38:08;;;;;;;10.95;5.55;;;8.80;98.70;;;7.23;85.04;101609.22;4934333;29;20040;-85
2022/04/30 02:40:36;;;;;;;13.15;6.05;;;8.80;98.60;;;7.28;85.31;101619.63;4941945;28;20054;-86
2022/04/30 02:43:07;;;;;;;17.15;6.50;;;8.70;99.20;;;7.29;85.76;101615.94;4954046;28;20042;-85
2022/04/30 02:45:37;;;;;;;10.63;5.82;;;8.70;99.70;;;7.26;85.96;101620.75;4935266;28;20035;-85
2022/04/30 02:48:06;;;;;;;13.07;6.15;;;8.70;99.60;;;7.28;85.87;101616.06;4934052;29;20075;-85
2022/04/30 02:50:35;;;;;;;15.18;6.32;;;8.60;99.90;;;7.21;86.48;101615.72;4934721;29;20048;-85
2022/04/30 02:53:02;;;;;;;11.20;6.30;;;8.50;99.90;;;7.07;87.40;101608.84;4934193;29;20046;-85
2022/04/30 02:55:30;;;;;;;15.73;6.30;;;8.50;99.90;;;7.05;87.52;101606.25;4934727;29;20047;-86
2022/04/30 03:00:46;;;;;;;13.75;6.57;;;8.50;99.90;;;7.22;86.53;101612.03;4932216;29;20046;-85
2022/04/30 03:03:20;;;;;;;14.75;6.70;;;8.50;99.90;;;7.13;87.45;101607.44;4931534;29;20044;-86
2022/04/30 03:05:50;;;;;;;11.23;6.32;;;8.50;99.90;;;7.15;87.16;101608.16;4928978;29;20123;-85
2022/04/30 03:08:19;;;;;;;11.63;6.57;;;8.50;99.90;;;7.23;86.79;101611.03;4930994;29;20067;-85
2022/04/30 03:10:48;;;;;;;14.35;6.55;;;8.50;99.90;;;7.15;87.45;101613.56;4933325;29;20051;-85
2022/04/30 03:13:17;;;;;;;13.57;6.78;;;8.40;99.90;;;7.22;87.13;101609.34;4925665;29;20123;-85
2022/04/30 03:15:47;;;;;;;12.23;6.28;;;8.30;99.90;;;7.22;87.21;101612.91;4915086;29;20586;-85
2022/04/30 03:23:48;;;;;;;13.40;6.32;;;8.30;99.90;;;7.04;87.85;101609.97;4933919;29;20095;-85
2022/04/30 03:26:16;;;;;;;13.70;6.63;;;8.30;99.90;;;6.96;88.53;101607.06;4933964;29;20040;-85
2022/04/30 03:28:44;;;;;;;13.73;6.82;;;8.30;99.90;;;7.03;88.29;101600.13;4932599;29;20044;-85
2022/04/30 03:31:15;;;;;;;18.85;6.60;;;8.20;99.90;;;7.00;88.30;101600.38;4925994;29;20122;-85
2022/04/30 03:33:47;;;;;;;16.23;6.80;;;8.20;99.90;;;6.94;88.81;101606.34;4928377;29;20040;-85
2022/04/30 03:36:15;;;;;;;13.88;6.25;;;8.20;99.90;;;6.94;88.27;101598.22;4933614;29;20055;-85
2022/04/30 03:38:43;;;;;;;14.48;6.50;;;8.20;99.90;;;7.00;88.58;101596.81;4924762;29;20036;-85
2022/04/30 03:41:10;;;;;;;12.27;6.88;;;8.10;99.90;;;6.86;89.02;101595.34;4933302;29;20170;-85
2022/04/30 03:43:37;;;;;;;12.95;6.82;;;8.10;99.90;;;6.78;89.04;101596.00;4933430;29;20083;-85
2022/04/30 03:46:05;;;;;;;16.60;6.50;;;8.10;99.90;;;6.85;89.21;101599.03;4932964;29;20067;-85
2022/04/30 03:48:33;;;;;;;16.02;6.72;;;8.10;99.90;;;6.66;90.27;101591.63;4931868;29;20059;-85
2022/04/30 03:51:01;;;;;;;13.18;6.68;;;8.00;99.90;;;6.74;90.35;101599.09;4932058;29;20513;-85
2022/04/30 03:53:28;;;;;;;10.93;6.57;;;8.00;99.90;;;6.84;89.69;101600.03;4925412;29;20383;-85
2022/04/30 03:55:56;;;;;;;14.63;6.60;;;8.00;99.90;;;6.65;90.27;101598.91;4933281;29;20119;-85
2022/04/30 03:58:24;;;;;;;17.35;7.28;;;7.90;99.90;;;6.69;90.38;101593.25;4924351;29;20052;-85
2022/04/30 04:00:53;;;;;;;12.98;6.82;;;7.90;99.90;;;6.74;90.36;101599.09;4927683;29;20059;-86
2022/04/30 04:03:21;;;;;;;13.80;6.72;;;7.90;99.90;;;6.72;90.60;101592.97;4931621;29;20055;-85
2022/04/30 04:05:49;;;;;;;16.15;6.78;;;7.90;99.90;;;6.74;90.94;101590.97;4933123;29;20055;-85
2022/04/30 04:08:17;;;;;;;13.65;6.97;;;7.90;99.90;;;6.71;90.16;101593.97;4931675;29;20043;-85
2022/04/30 04:10:44;;;;;;;12.27;6.55;;;7.90;99.90;;;6.72;90.74;101598.38;4925761;29;20048;-85
2022/04/30 04:18:41;;;;;;;11.98;7.15;;;7.90;99.90;;;6.69;90.59;101604.91;4922239;29;20533;-84
2022/04/30 04:21:11;;;;;;;13.13;6.68;;;7.70;99.90;;;6.68;90.88;101607.75;4917769;29;20083;-85
2022/04/30 04:26:19;;;;;;;16.58;7.35;;;7.70;99.90;;;6.46;91.64;101601.47;4918056;29;20048;-85
2022/04/30 04:28:46;;;;;;;15.60;6.63;;;7.70;99.90;;;6.55;91.72;101608.81;4931284;29;20051;-85
2022/04/30 04:31:16;;;;;;;12.68;7.05;;;7.70;99.90;;;6.58;91.16;101604.97;4920929;29;20108;-85
2022/04/30 04:33:44;;;;;;;12.82;6.93;;;7.70;99.90;;;6.59;91.72;101602.16;4933086;29;20044;-85
2022/04/30 04:36:13;;;;;;;13.65;6.85;;;7.60;99.90;;;6.53;91.75;101599.09;4924333;29;20040;-85
2022/04/30 04:38:40;;;;;;;14.30;7.20;;;7.70;99.90;;;6.34;92.98;101607.91;4924825;29;20054;-85
2022/04/30 04:41:07;;;;;;;12.60;7.03;;;7.70;99.90;;;6.45;92.47;101614.16;4932513;29;20049;-87
2022/04/30 04:43:34;;;;;;;15.20;7.07;;;7.70;99.90;;;6.52;92.27;101617.19;4930037;29;20501;-87
2022/04/30 04:46:03;;;;;;;13.63;7.32;;;7.60;99.90;;;6.30;93.51;101612.72;4927872;29;20524;-88
2022/04/30 04:48:30;;;;;;;13.10;7.50;;;7.60;99.90;;;6.36;93.34;101614.06;4924349;29;20040;-90
2022/04/30 04:50:58;;;;;;;15.23;7.22;;;7.70;99.90;;;6.42;93.12;101617.09;4928294;29;20054;-89
2022/04/30 04:53:30;;;;;;;16.48;7.50;;;7.70;99.90;;;6.38;93.10;101618.38;4930765;29;20821;-89
2022/04/30 04:55:58;;;;;;;15.13;7.28;;;7.80;99.90;;;6.43;93.72;101615.25;4928417;29;20047;-88
2022/04/30 04:58:25;;;;;;;13.30;7.22;;;7.80;99.90;;;6.32;94.04;101618.00;4933764;29;20075;-90
2022/04/30 05:00:52;;;;;;;13.40;6.93;;;7.70;99.90;;;6.45;93.72;101619.56;4931776;29;20044;-90
2022/04/30 05:03:19;;;;;;;16.63;7.50;;;7.70;99.90;;;6.44;93.24;101622.38;4934030;29;20039;-90
2022/04/30 05:05:47;;;;;;;16.23;7.60;;;7.70;99.90;;;6.54;92.93;101617.91;4934221;29;20093;-89
2022/04/30 05:08:14;;;;;;;13.82;7.45;;;7.70;99.90;;;6.54;93.39;101623.31;4950483;28;20053;-90
2022/04/30 05:10:43;;;;;;;20.80;7.68;;;7.80;99.90;;;6.57;93.17;101628.47;4935033;29;20089;-88
2022/04/30 05:13:10;;;;;;;18.45;8.00;;;7.80;99.90;;;6.53;93.28;101627.03;4934871;29;20043;-90
2022/04/30 05:15:37;;;;;;;16.60;7.63;;;7.80;99.90;;;6.61;93.78;101632.63;4935685;29;20463;-89
2022/04/30 05:18:05;;;;;;;19.52;8.10;;;7.70;99.90;;;6.43;94.34;101631.47;4935338;29;20040;-91
2022/04/30 05:20:32;;;;;;;17.55;7.82;;;7.80;99.90;;;6.42;94.45;101637.88;4935091;29;20075;-88
2022/04/30 05:23:00;;;;;;;17.60;7.85;;;7.90;99.90;;;6.45;94.78;101635.78;4929936;29;20040;-88
2022/04/30 05:25:27;;;;;;;20.17;7.75;;;7.90;99.90;;;6.60;93.93;101639.00;4935505;29;20139;-89
2022/04/30 05:27:57;;;;;;;18.23;8.07;;;7.90;99.90;;;6.47;94.84;101638.34;4935609;29;20040;-89
2022/04/30 05:30:24;;;;;;;12.98;7.07;;;7.90;99.90;;;6.47;94.62;101632.94;4927256;29;20078;-89
2022/04/30 05:32:52;;;;;;;20.25;7.75;;;7.90;99.90;;;6.64;94.62;101639.59;4934598;29;20043;-89
2022/04/30 05:35:19;;;;;;;16.05;7.13;;;8.00;99.90;;;6.52;94.02;101641.50;4935467;29;20048;-88
2022/04/30 05:37:47;;;;;;;15.18;6.65;;;7.90;99.90;;;6.66;93.82;101643.03;4934140;29;20572;-88
2022/04/30 05:40:14;;;;;;;13.95;6.75;;;7.90;99.90;;;6.75;94.18;101641.41;4955927;28;20055;-89
2022/04/30 05:42:41;;;;;;;15.68;7.00;;;8.00;99.90;;;6.77;92.99;101644.84;4930887;29;20052;-87
2022/04/30 05:45:11;;;;;;;20.15;6.82;;;8.00;99.90;;;6.71;93.49;101640.81;4928377;29;20044;-88
2022/04/30 05:47:38;;;;;;;13.00;6.97;;;8.00;99.90;;;6.74;93.90;101645.97;4930658;29;20094;-88
2022/04/30 05:50:08;;;;;;;18.65;7.68;;;8.00;99.90;;;6.90;93.97;101650.06;4935193;29;20071;-87
2022/04/30 05:52:36;;;;;;;11.70;6.93;;;8.10;99.90;;;6.96;92.92;101639.53;4934136;29;20039;-88
2022/04/30 05:55:04;;;;;;;15.02;7.20;;;8.10;99.90;;;6.98;92.55;101642.97;4935222;29;20043;-88
2022/04/30 05:57:32;;;;;;;14.05;7.00;;;8.10;99.90;;;7.10;92.93;101645.59;4929681;29;20068;-87
2022/04/30 06:00:00;;;;;;;15.35;7.03;;;8.10;99.90;;;6.95;92.78;101645.97;4934848;29;20071;-88
2022/04/30 06:02:29;;;;;;;14.57;6.97;;;8.20;99.90;;;6.95;93.24;101648.66;4933314;29;20059;-87
2022/04/30 06:04:56;;;;;;;15.90;7.10;;;8.30;99.90;;;7.05;93.16;101649.56;4934633;29;20131;-88
2022/04/30 06:07:23;;;;;;;15.43;7.57;;;8.30;99.90;;;7.17;92.31;101642.22;4935014;29;20486;-87
2022/04/30 06:09:50;;;;;;;16.85;7.13;;;8.30;99.90;;;7.19;92.10;101655.63;4930673;29;20090;-87
2022/04/30 06:12:19;;;;;;;16.65;7.13;;;8.30;99.90;;;7.27;92.23;101655.78;4932884;29;20130;-87
2022/04/30 06:14:47;;;;;;;13.57;6.93;;;8.40;99.90;;;7.38;92.06;101658.41;4927650;29;20052;-87
2022/04/30 06:17:14;;;;;;;15.15;7.03;;;8.50;99.90;;;7.53;91.51;101658.06;4933024;29;20124;-87
2022/04/30 06:19:43;;;;;;;15.60;6.72;;;8.70;99.90;;;7.70;91.88;101654.69;4930922;29;20123;-87
2022/04/30 06:22:11;;;;;;;16.77;7.57;;;8.70;99.90;;;7.76;91.50;101653.28;4931769;29;20131;-87
2022/04/30 06:24:38;;;;;;;12.70;6.38;;;8.80;99.90;;;7.80;91.63;101661.00;4930784;29;20073;-87
2022/04/30 06:27:08;;;;;;;14.95;6.80;;;8.90;99.90;;;7.98;90.62;101665.78;4930714;29;22054;-87
2022/04/30 06:29:36;;;;;;;15.07;7.45;;;9.00;99.90;;;8.02;90.82;101653.66;4931986;29;20049;-86
2022/04/30 06:32:04;;;;;;;17.15;7.90;;;9.00;99.90;;;8.19;90.42;101655.66;4931579;29;20395;-86
2022/04/30 06:34:31;;;;;;;12.50;6.95;;;9.20;99.90;;;8.18;90.23;101651.22;4932078;29;20122;-87
2022/04/30 06:37:00;;;;;;;15.57;6.63;;;9.30;99.90;;;8.10;89.43;101661.94;4932065;29;20039;-86
2022/04/30 06:39:27;;;;;;;17.67;6.65;;;9.40;99.90;;;8.26;89.68;101665.94;4933383;29;20062;-84
2022/04/30 06:41:54;;;;;;;18.27;6.82;;;9.40;99.90;;;8.21;89.70;101672.66;4931612;29;20055;-86
2022/04/30 06:44:21;;;;;;;14.68;7.30;;;9.50;99.90;;;8.15;89.46;101659.66;4930168;29;20115;-85
2022/04/30 06:46:49;;;;;;;14.07;7.10;;;9.50;99.90;;;8.34;89.36;101663.38;4927329;29;20047;-86
2022/04/30 06:49:16;;;;;;;15.43;7.40;;;9.70;99.90;;;8.45;89.02;101649.69;4933498;29;20040;-84
2022/04/30 06:51:45;;;;;;;17.25;7.32;;;9.80;99.90;;;8.60;89.20;101653.72;4933006;29;20059;-80
2022/04/30 06:57:12;;;;;;;14.30;6.95;;;10.00;99.90;;;8.66;87.32;101651.41;4935037;29;20113;-91
2022/04/30 06:59:41;;;;;;;14.93;8.10;;;10.00;99.80;;;8.58;87.65;101644.84;4933007;29;20050;-91
2022/04/30 07:02:15;;;;;;;15.85;7.28;;;10.10;99.70;;;8.91;87.26;101645.41;4948824;28;20055;-90
2022/04/30 07:04:43;;;;;;;15.65;6.20;;;10.40;98.90;;;9.11;85.83;101640.75;4931889;29;20051;-91
2022/04/30 07:07:11;;;;;;;15.43;7.20;;;10.70;97.70;;;9.25;85.39;101646.72;4927685;29;20047;-90
2022/04/30 07:09:40;;;;;;;11.50;6.72;;;10.80;97.70;;;9.11;83.94;101648.06;4933582;29;20040;-88
2022/04/30 07:12:11;;;;;;;16.05;6.22;;;10.90;95.50;;;9.12;84.34;101644.31;4932827;29;20050;-90
2022/04/30 07:14:40;;;;;;;14.55;6.35;;;11.00;95.90;;;9.07;83.08;101644.78;4932537;29;20052;-90
2022/04/30 07:17:09;;;;;;;13.73;6.45;;;10.90;94.90;;;8.88;82.82;101648.41;4932779;29;20054;-89
2022/04/30 07:19:37;;;;;;;13.10;7.13;;;10.70;94.90;;;8.65;82.52;101647.84;4932120;29;20048;-90
2022/04/30 07:29:50;;;;;;;;;;;10.20;94.40;;;8.69;82.13;101633.00;4938121;29;20151;-93
2022/04/30 07:32:21;;;;;;;10.48;5.90;;;10.20;94.90;;;8.67;82.38;101639.56;4995812;28;19926;-93
2022/04/30 07:43:03;;;;;;;17.15;6.03;;;10.80;94.90;;;9.76;81.74;101642.63;5438366;23;20054;-88
2022/04/30 07:45:30;;;;;;;9.88;5.65;;;11.10;95.90;;;10.06;81.83;101636.00;5009805;28;20045;-88
2022/04/30 07:47:59;;;;;;;11.63;5.57;;;11.30;96.10;;;10.21;80.84;101644.50;5008799;28;20476;-88
2022/04/30 07:50:30;;;;;;;11.70;5.53;;;11.50;94.40;;;10.17;80.33;101652.13;5010935;28;20049;-87
2022/04/30 08:19:59;;;;;;;8.85;4.30;;;11.30;90.60;;;9.73;73.60;101635.66;5186117;22;20416;-94
2022/04/30 08:22:27;;;;;;;13.82;5.32;;;11.20;89.50;;;9.78;73.73;101633.31;5012200;28;20042;-93
2022/04/30 08:24:54;;;;;;;9.27;5.00;;;11.20;88.70;;;9.88;74.59;101626.97;5012904;28;20051;-87
2022/04/30 08:27:24;;;;;;;8.63;4.28;;;11.30;90.00;;;9.81;73.00;101631.31;5013084;28;20034;-95
2022/04/30 08:29:51;;;;;;;9.30;4.63;;;11.40;88.10;;;10.03;74.43;101630.03;5010138;28;20049;-92
2022/04/30 08:32:19;;;;;;;11.45;4.55;;;11.50;89.50;;;10.10;72.28;101637.41;5005354;28;20051;-89
2022/04/30 08:34:47;;;;;;;8.45;3.97;;;11.60;87.90;;;10.15;72.02;101631.53;5009780;28;20156;-91
2022/04/30 08:37:16;;;;;;;8.35;4.10;;;11.70;86.70;;;10.20;70.82;101634.63;5004684;28;20059;-91
2022/04/30 08:39:43;;;;;;;9.20;3.78;;;11.70;86.50;;;10.36;74.48;101625.81;5015267;28;20128;-92
2022/04/30 08:42:10;;;;;;;9.90;4.13;;;11.90;89.60;;;10.51;73.73;101623.41;5018120;28;20499;-91
2022/04/30 08:44:40;;;;;;;8.27;3.90;;;12.00;88.50;;;10.57;70.79;101626.34;5030320;28;20117;-91
2022/04/30 08:47:11;;;;;;;18.75;5.00;;;12.10;86.10;;;10.50;69.85;101627.13;5014467;28;20042;-95
2022/04/30 08:49:44;;;;;;;11.68;4.45;;;12.00;84.40;;;10.60;71.15;101621.59;5007998;28;20049;-96
2022/04/30 08:57:39;;;;;;;11.07;4.10;;;12.20;81.60;;;10.75;65.88;101625.44;4986775;28;20049;-92
2022/04/30 09:00:11;;;;;;;10.57;4.15;;;12.20;81.40;;;10.76;66.05;101628.03;4988502;28;20059;-92
2022/04/30 09:02:48;;;;;;;11.27;4.40;;;12.20;81.70;;;10.92;68.17;101624.53;4991252;28;20049;-93
2022/04/30 09:05:15;;;;;;;6.65;3.88;;;12.30;83.70;;;11.05;69.40;101623.28;5003719;28;20061;-92
2022/04/30 09:07:52;;;;;;;11.60;4.93;;;12.40;85.40;;;11.07;67.38;101618.53;4990761;28;20042;-93
2022/04/30 09:10:23;;;;;;;9.10;4.40;;;12.40;83.30;;;10.77;66.00;101620.69;4991159;28;20604;-90
2022/04/30 09:12:52;;;;;;;12.35;4.43;;;12.40;81.70;;;10.72;67.71;101625.78;4990340;28;20089;-92
2022/04/30 09:15:20;;;;;;;16.27;5.50;;;12.30;83.20;;;10.78;71.14;101616.97;4991490;28;20049;-85
2022/04/30 09:17:58;;;;;;;8.57;4.25;;;12.30;86.90;;;10.83;68.81;101605.59;4977949;28;20134;-89
2022/04/30 09:20:26;;;;;;;9.20;4.47;;;12.30;84.20;;;10.93;69.76;101607.22;4984343;28;20101;-89
2022/04/30 09:22:53;;;;;;;9.23;4.40;;;12.40;85.60;;;10.96;68.18;101606.88;4983724;28;20444;-90
2022/04/30 09:25:21;;;;;;;8.95;4.38;;;12.40;83.00;;;10.99;66.66;101594.81;4988200;28;20118;-93
2022/04/30 09:27:55;;;;;;;11.27;4.32;;;12.40;80.80;;;11.04;67.74;101602.50;4992162;28;20038;-94
2022/04/30 09:30:28;;;;;;;12.60;4.47;;;12.50;83.00;;;11.02;66.74;101609.97;4990973;28;20054;-90
2022/04/30 09:33:03;;;;;;;10.88;4.72;;;12.50;82.00;;;10.85;64.85;101609.88;4981110;28;20528;-93
2022/04/30 09:38:26;;;;;;;8.35;4.20;;;12.50;81.90;;;10.90;64.94;101604.78;4948495;28;20050;-93
2022/04/30 09:40:55;;;;;;;8.45;4.68;;;12.50;80.60;;;11.00;66.30;101610.13;5011147;28;20042;-93
2022/04/30 09:43:29;;;;;;;9.02;4.72;;;12.50;83.10;;;10.82;64.81;101609.34;4994558;28;20042;-93
2022/04/30 09:46:00;;;;;;;12.13;4.70;;;12.50;80.40;;;10.87;66.08;101596.97;5005939;28;20042;-95
2022/04/30 09:54:01;;;;;;;12.60;4.40;;;12.30;77.60;;;10.78;63.76;101594.34;4990128;28;20054;-93
2022/04/30 09:56:35;;;;;;;9.15;4.70;;;12.30;79.70;;;10.92;64.53;101583.69;4983272;28;20042;-94
2022/04/30 09:59:10;;;;;;;7.32;4.43;;;12.30;80.30;;;11.04;63.40;101586.16;4991030;28;20402;-93
2022/04/30 10:01:40;;;;;;;10.07;4.47;;;12.50;80.00;;;11.16;64.90;101576.69;4987182;28;20108;-91
2022/04/30 10:04:11;;;;;;;10.53;5.03;;;12.50;80.90;;;11.17;64.77;101586.56;4985279;28;20050;-94
2022/04/30 10:06:44;;;;;;;11.07;4.68;;;12.60;80.70;;;11.09;64.52;101589.25;4990476;28;20293;-93
2022/04/30 10:09:15;;;;;;;10.07;4.85;;;12.60;80.60;;;10.96;63.51;101590.53;4994306;28;20042;-94
2022/04/30 10:11:48;;;;;;;;;;;12.50;79.80;;;11.02;63.69;101582.72;4991631;28;20054;-92
2022/04/30 10:14:31;;;;;;;10.18;4.55;;;12.60;79.40;;;11.17;65.17;101581.13;4991837;28;19930;-92
2022/04/30 10:19:42;;;;;;;10.75;4.85;;;12.70;79.90;;;11.20;63.83;101580.81;4977754;28;20512;-93
2022/04/30 10:22:12;;;;;;;12.70;5.07;;;12.70;79.40;;;11.28;66.39;101578.09;4994478;28;20100;-91
2022/04/30 10:24:45;;;;;;;10.88;4.68;;;12.80;82.60;;;11.32;65.45;101574.03;4982341;28;20043;-91
2022/04/30 10:27:13;;;;;;;6.97;4.05;;;12.80;81.10;;;11.35;63.55;101578.31;5009919;28;20563;-93
2022/04/30 10:29:57;;;;;;;11.18;4.18;;;12.80;79.60;;;11.41;62.37;101571.38;4992794;28;20046;-93
2022/04/30 10:32:33;;;;;;;8.98;3.95;;;12.80;78.00;;;11.37;61.43;101564.53;4993276;28;20042;-93
2022/04/30 10:35:02;;;;;;;11.50;4.32;;;12.80;77.40;;;11.35;60.36;101573.72;4989307;28;20098;-93
2022/04/30 10:37:34;;;;;;;8.45;4.18;;;12.80;77.70;;;11.36;62.00;101571.84;4990607;28;20097;-94
2022/04/30 10:40:07;;;;;;;11.00;4.13;;;12.80;78.40;;;11.30;62.60;101570.63;4993289;28;20046;-93
2022/04/30 10:42:42;;;;;;;9.80;4.05;;;12.80;78.10;;;11.35;62.27;101562.81;4994699;28;20297;-95
2022/04/30 10:45:15;;;;;;;9.13;4.20;;;12.80;78.30;;;11.44;63.11;101560.13;4982333;28;20074;-94
2022/04/30 10:47:54;;;;;;;8.80;4.50;;;12.80;79.20;;;11.47;61.27;101551.63;4990557;28;20098;-94
2022/04/30 10:50:22;;;;;;;9.10;4.63;;;12.90;77.30;;;11.51;61.12;101550.25;4991785;28;20097;-89
2022/04/30 10:52:51;;;;;;;14.07;4.70;;;12.90;76.70;;;11.60;61.63;101546.56;4992950;28;20062;-91
2022/04/30 10:55:21;;;;;;;8.15;4.68;;;13.00;77.10;;;11.73;63.19;101549.66;4987074;28;20035;-92
2022/04/30 10:57:49;;;;;;;11.18;5.20;;;13.10;79.20;;;11.73;61.15;101544.19;4994608;28;20038;-93
2022/04/30 11:00:18;;;;;;;8.73;4.93;;;13.10;77.00;;;11.71;63.60;101535.34;4990639;28;20042;-93
2022/04/30 11:02:45;;;;;;;12.43;5.22;;;13.20;79.40;;;11.70;65.01;101541.78;4993651;28;20489;-93
2022/04/30 11:05:19;;;;;;;7.90;4.75;;;13.10;80.80;;;11.47;60.96;101535.25;4981323;28;20046;-95
2022/04/30 11:07:47;;;;;;;11.02;4.88;;;13.10;76.30;;;11.48;61.99;101535.09;4991310;28;20038;-94
2022/04/30 11:16:41;;;;;;;6.82;3.92;;;13.00;76.30;;;11.53;59.83;101527.25;5234011;22;19948;-94
2022/04/30 11:42:01;;;;;;;7.15;3.50;;;13.40;77.90;;;11.83;61.41;101496.81;6124394;22;20410;-92
2022/04/30 11:44:29;;;;;;;9.13;3.97;;;13.40;76.60;;;11.89;59.34;101493.41;5032301;28;20072;-90
2022/04/30 11:47:20;;;;;;;7.38;3.85;;;13.50;74.00;;;11.88;60.83;101494.44;5026321;28;20088;-94
2022/04/30 11:49:48;;;;;;;6.32;3.80;;;13.50;74.70;;;11.84;57.51;101485.75;5011282;28;20451;-92
2022/04/30 11:55:21;;;;;;;6.88;3.50;;;13.40;71.90;;;11.88;57.61;101476.22;4972935;28;20138;-91
2022/04/30 11:58:18;;;;;;;8.93;3.95;;;13.40;72.50;;;11.97;60.17;101477.06;5008620;28;20118;-95
2022/04/30 12:06:09;;;;;;;8.98;4.00;;;13.70;76.90;;;12.16;59.61;101459.50;5939146;22;20874;-93
2022/04/30 12:08:39;;;;;;;9.35;3.80;;;13.60;74.80;;;12.14;61.00;101467.03;5046431;28;20103;-92
2022/04/30 12:11:06;;;;;;;7.93;3.85;;;13.70;76.60;;;12.10;62.28;101469.22;5031594;28;20061;-93
2022/04/30 12:13:35;;;;;;;7.57;4.28;;;13.70;77.70;;;12.00;56.98;101474.03;5010716;28;20046;-92
2022/04/30 12:16:06;;;;;;;9.07;4.40;;;13.70;72.80;;;11.99;58.96;101475.03;5011215;28;20048;-93
2022/04/30 12:26:58;;;;;;;8.55;4.75;;;13.60;72.00;;;12.06;58.97;101461.56;5007038;28;20054;-90
2022/04/30 12:29:27;;;;;;;7.57;4.40;;;13.60;74.40;;;12.10;58.82;101462.94;4992522;28;20141;-93
2022/04/30 12:31:54;;;;;;;9.93;4.72;;;13.70;74.20;;;12.17;61.01;101452.19;4990499;28;20050;-92
2022/04/30 12:34:23;;;;;;;8.93;4.78;;;13.70;76.00;;;12.19;60.75;101447.41;4995133;28;20038;-92
2022/04/30 12:36:55;;;;;;;5.95;4.18;;;13.80;75.30;;;12.25;60.33;101449.44;4992003;28;20125;-93